Time;durP1;ratioP1;P1;durP2;ratioP2;P2;SDS_P1;SDS_P2;PMS_P1;PMS_P2;Temp;Humidity;BMP_temperature;BMP_pressure;BME280_temperature;BME280_humidity;BME280_pressure;Samples;Min_cycle;Max_cycle;Signal;HPM_P1;HPM_P2
2022/07/15 00:01:54;;;;;;;23.08;13.45;;;;;;;17.14;60.27;100172.47;5026968;28;20048;-71
2022/07/15 00:04:23;;;;;;;7.22;3.97;;;;;;;17.05;60.37;100181.94;5025939;28;20052;-71
2022/07/15 00:06:49;;;;;;;9.30;5.15;;;;;;;17.02;60.41;100186.63;5010777;28;20042;-70
2022/07/15 00:09:16;;;;;;;9.75;5.30;;;;;;;17.07;60.41;100181.84;5007363;28;20057;-70
2022/07/15 00:11:43;;;;;;;9.82;4.03;;;;;;;17.11;60.28;100178.84;5007394;28;20053;-70
2022/07/15 00:14:09;;;;;;;8.73;3.97;;;;;;;17.11;60.44;100178.84;5007513;28;20083;-70
2022/07/15 00:16:36;;;;;;;9.45;3.95;;;;;;;17.14;60.30;100177.78;5007281;28;20058;-70
2022/07/15 00:19:03;;;;;;;8.82;3.53;;;;;;;17.14;60.71;100177.78;5007091;28;20061;-70
2022/07/15 00:21:31;;;;;;;5.35;3.38;;;;;;;17.18;60.54;100179.28;5007418;28;20074;-70
2022/07/15 00:23:58;;;;;;;6.22;3.38;;;;;;;17.15;60.53;100180.34;5007067;28;20417;-70
2022/07/15 00:26:25;;;;;;;9.70;4.07;;;;;;;17.15;61.10;100176.81;5007162;28;20065;-70
2022/07/15 00:28:53;;;;;;;9.60;3.13;;;;;;;17.19;60.30;100178.31;5007484;28;20054;-70
2022/07/15 00:31:20;;;;;;;6.75;3.15;;;;;;;17.22;60.77;100177.25;5007008;28;20204;-69
2022/07/15 00:33:47;;;;;;;8.02;3.20;;;;;;;17.19;60.77;100172.97;5014142;28;20060;-69
2022/07/15 00:36:14;;;;;;;7.35;3.88;;;;;;;17.16;60.81;100171.38;5031473;28;20054;-70
2022/07/15 00:38:42;;;;;;;5.45;3.10;;;;;;;17.19;60.53;100172.97;5039222;28;20063;-69
2022/07/15 00:41:08;;;;;;;11.88;4.93;;;;;;;17.15;61.16;100175.03;5040216;28;20056;-69
2022/07/15 00:43:35;;;;;;;7.40;4.43;;;;;;;17.06;61.26;100170.34;5041375;28;20045;-69
2022/07/15 00:46:01;;;;;;;8.48;4.00;;;;;;;17.04;61.43;100174.06;5033860;28;20128;-69
2022/07/15 00:48:28;;;;;;;11.05;4.70;;;;;;;16.97;61.80;100175.44;5031165;28;20057;-69
2022/07/15 00:50:55;;;;;;;11.32;5.22;;;;;;;16.84;62.40;100168.31;5027648;28;20130;-69
2022/07/15 00:53:22;;;;;;;9.02;3.70;;;;;;;16.82;62.58;100164.06;5028834;28;20053;-68
2022/07/15 00:55:53;;;;;;;10.32;4.18;;;;;;;16.84;62.10;100167.47;5026832;28;20057;-70
2022/07/15 00:58:23;;;;;;;10.10;4.68;;;;;;;16.83;62.23;100163.94;5028009;28;20061;-69
2022/07/15 01:00:51;;;;;;;9.27;4.07;;;;;;;16.78;62.60;100166.06;5020434;28;20048;-68
2022/07/15 01:03:19;;;;;;;9.15;4.78;;;;;;;16.72;62.97;100169.13;5026562;28;20150;-68
2022/07/15 01:05:47;;;;;;;13.27;4.05;;;;;;;16.71;63.14;100168.28;5025981;28;20083;-69
2022/07/15 01:08:13;;;;;;;5.85;3.60;;;;;;;16.80;62.88;100166.81;5027101;28;20046;-69
2022/07/15 01:10:41;;;;;;;10.75;3.88;;;;;;;16.85;62.47;100170.00;5026754;28;20064;-70
2022/07/15 01:13:09;;;;;;;5.25;4.13;;;;;;;16.82;62.66;100159.56;5027519;28;20068;-70
2022/07/15 01:15:36;;;;;;;11.27;4.43;;;;;;;16.67;63.16;100161.44;5025784;28;20132;-70
2022/07/15 01:18:04;;;;;;;8.02;4.55;;;;;;;16.60;63.29;100161.97;5026022;28;20053;-70
2022/07/15 01:20:31;;;;;;;8.85;4.13;;;;;;;16.61;63.16;100172.50;5025608;28;20050;-69
2022/07/15 01:23:00;;;;;;;9.88;4.40;;;;;;;16.65;63.09;100162.50;5017424;28;20056;-69
2022/07/15 01:25:27;;;;;;;8.85;4.00;;;;;;;16.70;62.75;100171.03;5014320;28;20764;-69
2022/07/15 01:27:53;;;;;;;8.95;4.00;;;;;;;16.66;63.10;100170.41;5012269;28;20592;-70
2022/07/15 01:30:20;;;;;;;6.60;3.67;;;;;;;16.69;62.91;100169.34;5020094;28;20499;-69
2022/07/15 01:32:46;;;;;;;7.50;4.45;;;;;;;16.65;63.02;100175.81;5026395;28;20049;-69
2022/07/15 01:35:13;;;;;;;10.82;4.63;;;;;;;16.56;63.32;100171.13;5025720;28;20055;-70
2022/07/15 01:37:39;;;;;;;7.65;3.72;;;;;;;16.52;63.37;100178.47;5025534;28;20129;-68
2022/07/15 01:40:09;;;;;;;11.00;5.22;;;;;;;16.47;63.73;100177.94;5025903;28;20124;-70
2022/07/15 01:42:35;;;;;;;7.93;3.58;;;;;;;16.44;64.09;100171.00;5025880;28;20053;-70
2022/07/15 01:45:02;;;;;;;11.07;4.65;;;;;;;16.38;64.12;100168.75;5024203;28;20049;-69
2022/07/15 01:47:29;;;;;;;9.52;4.65;;;;;;;16.38;63.93;100175.88;5025553;28;20052;-69
2022/07/15 01:49:54;;;;;;;10.50;4.18;;;;;;;16.34;64.35;100174.38;5026120;28;20053;-69
2022/07/15 01:52:21;;;;;;;10.90;4.95;;;;;;;16.35;64.19;100173.44;5020811;28;20719;-69
2022/07/15 01:54:47;;;;;;;9.18;4.68;;;;;;;16.37;63.72;100176.84;5024447;28;20053;-69
2022/07/15 01:57:15;;;;;;;13.68;3.88;;;;;;;16.41;63.91;100176.50;5024131;28;20149;-69
2022/07/15 01:59:42;;;;;;;9.13;4.75;;;;;;;16.46;63.31;100178.88;5025406;28;20069;-69
2022/07/15 02:02:08;;;;;;;10.35;4.38;;;;;;;16.40;63.51;100172.16;5026188;28;20318;-68
2022/07/15 02:04:36;;;;;;;8.43;3.05;;;;;;;16.42;63.65;100169.41;5025022;28;20048;-68
2022/07/15 02:07:04;;;;;;;9.40;4.20;;;;;;;16.38;63.49;100170.56;5025469;28;20079;-68
2022/07/15 02:09:31;;;;;;;10.25;4.25;;;;;;;16.31;63.76;100172.78;5025273;28;20136;-68
2022/07/15 02:11:57;;;;;;;10.57;3.75;;;;;;;16.34;64.04;100161.91;5020489;28;20496;-70
2022/07/15 02:14:25;;;;;;;7.13;4.50;;;;;;;16.32;63.96;100169.19;5004646;28;20405;-70
2022/07/15 02:16:52;;;;;;;5.75;3.45;;;;;;;16.33;64.00;100167.34;5004887;28;20128;-69
2022/07/15 02:19:18;;;;;;;10.73;4.60;;;;;;;16.32;63.68;100169.19;5005209;28;20063;-69
2022/07/15 02:21:45;;;;;;;13.98;4.88;;;;;;;16.25;63.84;100176.69;5022475;28;20045;-69
2022/07/15 02:24:11;;;;;;;11.57;4.57;;;;;;;16.22;63.62;100170.72;5023935;28;20056;-69
2022/07/15 02:26:38;;;;;;;16.88;4.47;;;;;;;16.19;64.08;100174.44;5024920;28;20060;-69
2022/07/15 02:29:04;;;;;;;8.50;4.05;;;;;;;16.21;63.74;100182.31;5024999;28;20452;-69
2022/07/15 02:31:32;;;;;;;6.57;4.65;;;;;;;16.15;64.27;100182.75;5024552;28;20132;-68
2022/07/15 02:33:59;;;;;;;11.40;5.40;;;;;;;16.14;64.10;100173.88;5024376;28;20132;-69
2022/07/15 02:36:26;;;;;;;7.13;3.75;;;;;;;16.14;63.99;100179.22;5024932;28;20132;-68
2022/07/15 02:38:52;;;;;;;11.07;4.07;;;;;;;16.21;63.70;100185.00;5025436;28;20055;-68
2022/07/15 02:41:19;;;;;;;10.65;4.10;;;;;;;16.24;63.50;100184.78;5025437;28;20107;-68
2022/07/15 02:43:45;;;;;;;10.00;3.58;;;;;;;16.24;63.40;100188.31;5025961;28;20516;-68
2022/07/15 02:46:12;;;;;;;8.48;3.72;;;;;;;16.25;63.75;100189.16;5024471;28;20060;-68
2022/07/15 02:48:40;;;;;;;9.82;4.35;;;;;;;16.26;63.51;100199.69;5024596;28;20045;-68
2022/07/15 02:51:09;;;;;;;10.48;4.38;;;;;;;16.29;63.17;100193.31;5024740;28;20050;-69
2022/07/15 02:53:36;;;;;;;11.23;3.97;;;;;;;16.21;63.45;100195.63;5024236;28;20041;-68
2022/07/15 02:56:03;;;;;;;13.38;3.60;;;;;;;16.22;62.90;100190.22;5023401;28;20627;-68
2022/07/15 02:58:31;;;;;;;9.63;3.63;;;;;;;16.16;63.18;100195.06;5024771;28;20060;-68
2022/07/15 03:00:58;;;;;;;7.72;3.13;;;;;;;16.20;63.12;100199.25;5016970;28;20141;-69
2022/07/15 03:03:25;;;;;;;8.63;3.75;;;;;;;16.21;62.86;100199.13;5024687;28;20085;-68
2022/07/15 03:05:53;;;;;;;10.57;4.40;;;;;;;16.23;62.58;100205.22;5023711;28;20520;-68
2022/07/15 03:08:20;;;;;;;8.30;3.17;;;;;;;16.22;62.38;100210.63;5026605;28;20428;-69
2022/07/15 03:10:46;;;;;;;12.52;4.00;;;;;;;16.22;62.52;100202.63;5028553;28;20045;-69
2022/07/15 03:13:13;;;;;;;6.75;3.30;;;;;;;16.21;61.96;100214.25;5028073;28;20107;-69
2022/07/15 03:15:39;;;;;;;16.00;4.97;;;;;;;16.12;62.26;100209.53;5027694;28;20059;-68
2022/07/15 03:18:06;;;;;;;8.00;3.55;;;;;;;16.09;62.50;100218.56;5028374;28;20128;-69
2022/07/15 03:20:33;;;;;;;8.30;2.92;;;;;;;16.09;62.80;100216.75;5028285;28;20132;-70
2022/07/15 03:23:00;;;;;;;9.75;4.07;;;;;;;16.10;62.50;100213.16;5022037;28;20791;-69
2022/07/15 03:25:27;;;;;;;6.20;2.88;;;;;;;16.12;62.25;100215.72;5026243;28;20051;-69
2022/07/15 03:27:54;;;;;;;6.03;3.55;;;;;;;16.13;62.29;100219.22;5025062;28;20052;-68
2022/07/15 03:30:22;;;;;;;8.45;3.10;;;;;;;16.15;62.43;100222.66;5022069;28;20053;-68
2022/07/15 03:32:49;;;;;;;10.05;2.67;;;;;;;16.10;62.20;100226.44;5027438;28;20049;-68
2022/07/15 03:35:15;;;;;;;13.15;3.88;;;;;;;16.02;62.60;100223.44;5027043;28;20053;-68
2022/07/15 03:37:42;;;;;;;6.07;2.65;;;;;;;15.94;62.87;100235.50;5027539;28;20057;-68
2022/07/15 03:40:11;;;;;;;6.47;3.08;;;;;;;15.95;63.07;100238.09;5028325;28;20084;-68
2022/07/15 03:42:38;;;;;;;9.82;3.83;;;;;;;15.87;63.11;100241.25;5026046;28;20128;-68
2022/07/15 03:45:06;;;;;;;7.70;3.10;;;;;;;15.85;63.30;100242.25;5022934;28;20060;-69
2022/07/15 03:47:32;;;;;;;9.52;3.75;;;;;;;15.91;63.08;100247.22;5027515;28;20136;-68
2022/07/15 03:49:59;;;;;;;7.32;3.03;;;;;;;15.89;63.38;100249.09;5026491;28;20132;-68
2022/07/15 03:52:25;;;;;;;9.98;2.90;;;;;;;15.87;63.46;100243.91;5027972;28;20049;-68
2022/07/15 03:54:52;;;;;;;13.60;3.33;;;;;;;15.89;63.36;100251.75;5027134;28;20052;-68
2022/07/15 03:57:20;;;;;;;11.70;3.38;;;;;;;15.96;63.25;100257.56;5027276;28;20055;-68
2022/07/15 03:59:47;;;;;;;12.15;3.38;;;;;;;15.97;62.97;100256.59;5027395;28;20057;-68
2022/07/15 04:02:13;;;;;;;9.13;3.60;;;;;;;16.02;62.75;100257.13;5027164;28;20072;-68
2022/07/15 04:04:40;;;;;;;9.98;3.63;;;;;;;16.03;62.64;100256.22;5026669;28;20054;-68
2022/07/15 04:07:06;;;;;;;17.45;10.13;;;;;;;16.03;62.81;100256.22;5027154;28;20056;-68
2022/07/15 04:09:33;;;;;;;34.67;19.10;;;;;;;15.94;63.04;100259.44;5027086;28;20402;-68
2022/07/15 04:12:00;;;;;;;16.35;6.13;;;;;;;15.88;63.05;100248.25;5026784;28;20420;-68
2022/07/15 04:14:27;;;;;;;9.02;3.85;;;;;;;15.92;63.02;100254.22;5025882;28;20156;-68
2022/07/15 04:16:54;;;;;;;11.30;3.35;;;;;;;15.93;63.01;100253.28;5026135;28;20588;-68
2022/07/15 04:19:21;;;;;;;11.65;3.20;;;;;;;15.89;63.18;100257.94;5026056;28;20053;-68
2022/07/15 04:21:48;;;;;;;6.60;2.97;;;;;;;15.80;63.29;100262.97;5026628;28;20123;-68
2022/07/15 04:24:14;;;;;;;14.10;5.18;;;;;;;15.67;63.58;100257.56;5025908;28;20053;-68
2022/07/15 04:26:42;;;;;;;15.82;4.30;;;;;;;15.65;63.54;100262.97;5027173;28;20804;-69
2022/07/15 04:29:08;;;;;;;9.18;3.35;;;;;;;15.62;63.61;100262.31;5027497;28;20147;-69
2022/07/15 04:31:36;;;;;;;8.88;3.20;;;;;;;15.63;63.61;100277.31;5026598;28;20049;-69
2022/07/15 04:34:03;;;;;;;18.58;6.65;;;;;;;15.64;63.60;100260.41;5026151;28;20052;-70
2022/07/15 04:36:29;;;;;;;14.55;4.45;;;;;;;15.62;63.72;100276.44;5026472;28;20059;-69
2022/07/15 04:38:56;;;;;;;6.13;3.22;;;;;;;15.54;64.18;100283.19;5026658;28;20045;-69
2022/07/15 04:41:23;;;;;;;8.15;3.58;;;;;;;15.53;64.07;100279.69;5026236;28;20045;-69
2022/07/15 04:43:49;;;;;;;10.63;4.65;;;;;;;15.46;64.22;100286.34;5026944;28;20046;-69
2022/07/15 04:46:16;;;;;;;11.98;3.25;;;;;;;15.43;64.20;100287.38;5026181;28;20540;-69
2022/07/15 04:51:28;;;;;;;12.60;4.40;;;;;;;15.34;64.73;100285.28;5027261;28;20125;-69
2022/07/15 04:53:54;;;;;;;21.15;4.57;;;;;;;15.36;64.43;100288.69;5025823;28;20531;-69
2022/07/15 04:56:21;;;;;;;11.77;4.03;;;;;;;15.38;64.60;100288.59;5025746;28;20045;-69
2022/07/15 04:58:47;;;;;;;34.45;7.13;;;;;;;15.30;64.84;100289.06;5026430;28;20053;-69
2022/07/15 05:01:14;;;;;;;10.70;4.15;;;;;;;15.31;64.79;100290.78;5026737;28;20072;-69
2022/07/15 05:03:42;;;;;;;13.07;3.75;;;;;;;15.23;65.05;100291.25;5026545;28;20045;-69
2022/07/15 05:06:09;;;;;;;9.85;3.33;;;;;;;15.23;65.15;100290.38;5025424;28;20505;-69
2022/07/15 05:08:36;;;;;;;7.85;3.83;;;;;;;15.25;64.95;100294.63;5025939;28;20049;-69
2022/07/15 05:11:03;;;;;;;12.45;3.47;;;;;;;15.29;64.92;100295.31;5025937;28;20764;-69
2022/07/15 05:13:29;;;;;;;20.02;8.10;;;;;;;15.36;64.68;100291.34;5025608;28;20053;-69
2022/07/15 05:15:56;;;;;;;12.73;6.05;;;;;;;15.39;64.60;100290.31;5024237;28;20660;-69
2022/07/15 05:18:22;;;;;;;13.05;3.45;;;;;;;15.42;64.50;100287.47;5025664;28;20060;-68
2022/07/15 05:20:50;;;;;;;7.30;3.60;;;;;;;15.42;64.14;100285.66;5026048;28;20071;-68
2022/07/15 05:23:18;;;;;;;10.38;3.22;;;;;;;15.35;64.23;100283.47;5025865;28;20060;-69
2022/07/15 05:25:45;;;;;;;9.45;3.58;;;;;;;15.22;64.71;100286.88;5024945;28;20053;-70
2022/07/15 05:28:12;;;;;;;9.85;3.90;;;;;;;15.22;64.79;100278.06;5026344;28;20049;-69
2022/07/15 05:30:38;;;;;;;7.13;3.05;;;;;;;15.31;64.69;100273.97;5025312;28;20100;-69
2022/07/15 05:33:05;;;;;;;10.80;3.47;;;;;;;15.41;63.93;100273.31;5025231;28;20095;-69
2022/07/15 05:35:32;;;;;;;7.57;3.45;;;;;;;15.40;64.19;100278.72;5024455;28;20056;-69
2022/07/15 05:37:58;;;;;;;7.85;2.85;;;;;;;15.45;64.07;100276.63;5025354;28;20507;-69
2022/07/15 05:40:26;;;;;;;13.90;4.38;;;;;;;15.55;64.11;100276.91;5025188;28;20061;-69
2022/07/15 05:42:54;;;;;;;17.80;4.22;;;;;;;15.62;63.54;100278.25;5025082;28;20049;-69
2022/07/15 05:45:20;;;;;;;11.85;4.00;;;;;;;15.66;63.40;100282.44;5024943;28;20050;-68
2022/07/15 05:47:49;;;;;;;10.35;3.45;;;;;;;15.66;63.58;100280.63;5020236;28;20045;-69
2022/07/15 05:50:16;;;;;;;9.02;3.35;;;;;;;15.74;63.10;100290.81;5021662;28;20057;-69
2022/07/15 05:52:43;;;;;;;8.35;3.38;;;;;;;15.80;62.74;100290.44;5018974;28;20052;-69
2022/07/15 05:55:10;;;;;;;8.52;3.10;;;;;;;15.86;62.53;100289.19;5025717;28;20049;-69
2022/07/15 05:57:38;;;;;;;11.95;3.85;;;;;;;15.87;62.31;100286.44;5012404;28;20052;-69
2022/07/15 06:00:07;;;;;;;9.77;2.58;;;;;;;15.84;62.76;100293.75;5005753;28;20064;-68
2022/07/15 06:02:33;;;;;;;12.02;3.35;;;;;;;15.83;62.61;100282.25;5005840;28;20054;-69
2022/07/15 06:05:00;;;;;;;17.00;3.92;;;;;;;15.68;63.14;100285.84;5005177;28;20084;-69
2022/07/15 06:07:26;;;;;;;11.15;3.67;;;;;;;15.72;63.15;100282.06;5004935;28;20433;-69
2022/07/15 06:09:53;;;;;;;9.18;3.90;;;;;;;15.81;62.35;100284.16;5005195;28;20391;-68
2022/07/15 06:12:20;;;;;;;8.70;2.72;;;;;;;15.89;62.37;100287.19;5005418;28;20046;-70
2022/07/15 06:14:47;;;;;;;8.55;3.20;;;;;;;15.81;62.23;100280.66;5004576;28;20045;-68
2022/07/15 06:17:14;;;;;;;16.35;4.40;;;;;;;15.73;62.72;100288.25;5005484;28;20057;-68
2022/07/15 06:19:41;;;;;;;7.32;3.35;;;;;;;15.80;62.36;100282.47;5006225;28;20057;-69
2022/07/15 06:22:08;;;;;;;12.20;4.03;;;;;;;15.93;61.91;100287.00;5005386;28;20410;-69
2022/07/15 06:24:34;;;;;;;8.93;3.50;;;;;;;15.90;62.00;100288.06;5004744;28;20049;-69
2022/07/15 06:27:01;;;;;;;10.45;3.35;;;;;;;15.87;62.28;100296.19;5020412;28;20478;-70
2022/07/15 06:29:27;;;;;;;7.25;3.75;;;;;;;15.91;62.21;100295.06;5024932;28;20053;-70
2022/07/15 06:31:55;;;;;;;12.90;4.07;;;;;;;16.34;63.43;100292.28;5024146;28;20054;-49
2022/07/15 06:34:22;;;;;;;7.22;2.58;;;;;;;16.71;61.84;100293.41;5023879;28;20053;-51
2022/07/15 06:36:50;;;;;;;13.52;5.47;;;;;;;16.68;60.27;100290.94;5024093;28;20049;-49
2022/07/15 06:39:16;;;;;;;7.50;2.53;;;;;;;16.61;60.69;100296.78;5024533;28;20057;-50
2022/07/15 06:41:43;;;;;;;15.30;3.78;;;;;;;16.65;59.81;100296.47;5005678;28;20054;-49
2022/07/15 06:44:11;;;;;;;7.20;3.20;;;;;;;16.77;60.04;100293.97;5004502;28;20053;-52
2022/07/15 06:46:37;;;;;;;7.32;1.98;;;;;;;17.19;59.06;100295.53;5005159;28;20292;-49
2022/07/15 06:49:06;;;;;;;9.20;3.33;;;;;;;17.44;58.65;100291.19;5004734;28;20057;-53
2022/07/15 06:51:32;;;;;;;7.25;2.25;;;;;;;17.54;56.76;100298.41;5004886;28;20054;-52
2022/07/15 06:53:59;;;;;;;8.60;2.45;;;;;;;17.60;57.73;100291.81;5006143;28;20050;-55
2022/07/15 06:56:25;;;;;;;11.45;2.53;;;;;;;17.52;57.69;100300.38;5005888;28;20050;-50
2022/07/15 06:58:52;;;;;;;7.50;2.75;;;;;;;17.69;56.87;100298.31;5007451;28;20699;-63
2022/07/15 07:01:19;;;;;;;4.80;2.53;;;;;;;17.76;56.15;100299.56;5005250;28;20084;-65
2022/07/15 07:03:45;;;;;;;23.40;6.45;;;;;;;17.68;57.06;100297.47;5004747;28;20053;-64
2022/07/15 07:06:14;;;;;;;9.20;3.13;;;;;;;17.53;57.33;100301.22;5004845;28;20918;-66
2022/07/15 07:08:41;;;;;;;11.75;3.88;;;;;;;17.61;56.71;100298.84;5010408;28;20523;-64
2022/07/15 07:11:07;;;;;;;7.40;2.28;;;;;;;17.72;55.81;100290.97;5024400;28;20053;-66
2022/07/15 07:13:34;;;;;;;26.17;4.75;;;;;;;17.60;56.30;100292.66;5024183;28;20133;-65
2022/07/15 07:16:01;;;;;;;10.90;3.35;;;;;;;17.59;56.66;100296.28;5026422;28;20064;-65
2022/07/15 07:18:29;;;;;;;9.90;3.90;;;;;;;17.39;56.98;100295.00;5034231;28;20091;-65
2022/07/15 07:20:56;;;;;;;6.63;2.58;;;;;;;17.37;57.21;100298.75;5035264;28;20053;-65
2022/07/15 07:23:26;;;;;;;9.68;2.80;;;;;;;17.44;56.53;100300.03;5043490;28;20053;-64
2022/07/15 07:25:53;;;;;;;6.97;2.58;;;;;;;17.37;56.74;100298.75;5036123;28;20057;-64
2022/07/15 07:28:19;;;;;;;8.20;2.70;;;;;;;17.30;56.95;100300.13;5031515;28;20064;-64
2022/07/15 07:30:46;;;;;;;7.00;2.05;;;;;;;17.20;57.21;100301.72;5039086;28;20072;-63
2022/07/15 07:33:13;;;;;;;7.28;2.35;;;;;;;17.11;57.45;100301.41;5030015;28;20432;-64
2022/07/15 07:35:40;;;;;;;9.23;3.58;;;;;;;17.19;57.69;100297.38;5026294;28;20056;-63
2022/07/15 07:38:07;;;;;;;11.40;2.70;;;;;;;17.10;57.73;100291.69;5026089;28;20583;-63
2022/07/15 07:40:35;;;;;;;6.18;2.22;;;;;;;17.15;58.38;100292.25;5017455;28;20076;-62
2022/07/15 07:43:01;;;;;;;6.20;2.83;;;;;;;17.29;58.71;100295.75;5004676;28;20394;-63
2022/07/15 07:45:28;;;;;;;7.30;2.83;;;;;;;17.31;56.65;100294.69;5003804;28;20518;-63
2022/07/15 07:47:55;;;;;;;6.72;2.40;;;;;;;17.33;56.51;100289.28;5004636;28;20057;-62
2022/07/15 07:50:22;;;;;;;4.05;1.98;;;;;;;17.57;55.34;100290.22;5019747;28;20053;-63
2022/07/15 07:52:49;;;;;;;9.75;2.80;;;;;;;17.85;54.48;100285.63;5024270;28;20049;-62
2022/07/15 07:55:16;;;;;;;6.35;2.00;;;;;;;17.83;54.28;100292.03;5025703;28;20041;-64
2022/07/15 07:57:55;;;;;;;6.57;2.70;;;;;;;18.08;54.65;100289.28;5027257;28;20052;-64
2022/07/15 08:00:23;;;;;;;7.13;2.20;;;;;;;18.44;53.10;100293.75;5027483;28;20490;-64
2022/07/15 08:02:51;;;;;;;7.18;3.00;;;;;;;18.67;52.50;100293.88;5027537;28;20087;-63
2022/07/15 08:05:18;;;;;;;5.38;1.90;;;;;;;18.73;51.85;100298.75;5027104;28;20049;-66
2022/07/15 08:07:44;;;;;;;7.43;2.30;;;;;;;18.38;52.12;100299.53;5028076;28;20065;-68
2022/07/15 08:10:12;;;;;;;6.47;3.17;;;;;;;18.24;51.78;100303.25;5028016;28;20132;-68
2022/07/15 08:12:39;;;;;;;6.40;2.20;;;;;;;18.14;52.04;100302.22;5027578;28;20056;-69
2022/07/15 08:15:10;;;;;;;9.18;1.90;;;;;;;18.07;52.57;100295.59;5026903;28;20053;-68
2022/07/15 08:17:37;;;;;;;4.78;2.30;;;;;;;17.84;51.95;100302.56;5026987;28;20471;-67
2022/07/15 08:20:04;;;;;;;4.63;1.85;;;;;;;17.81;52.51;100305.47;5027590;28;20049;-67
2022/07/15 08:22:31;;;;;;;4.97;2.30;;;;;;;17.85;52.53;100304.31;5027473;28;20065;-67
2022/07/15 08:24:58;;;;;;;7.10;2.42;;;;;;;18.13;51.72;100304.97;5026341;28;20045;-67
2022/07/15 08:27:25;;;;;;;3.60;1.90;;;;;;;18.39;46.57;100305.75;5026520;28;20541;-67
2022/07/15 08:29:51;;;;;;;3.42;1.50;;;;;;;18.75;46.18;100302.16;5026930;28;20160;-68
2022/07/15 08:32:19;;;;;;;4.50;1.77;;;;;;;19.04;46.24;100296.47;5027031;28;20168;-68
2022/07/15 08:34:47;;;;;;;6.65;1.70;;;;;;;18.81;46.94;100292.88;5026418;28;20041;-68
2022/07/15 08:37:13;;;;;;;6.53;1.90;;;;;;;18.74;48.70;100299.59;5026849;28;20057;-68
2022/07/15 08:39:40;;;;;;;7.60;2.03;;;;;;;18.62;48.22;100302.22;5027334;28;20521;-68
2022/07/15 08:42:07;;;;;;;6.15;2.10;;;;;;;18.65;49.35;100306.47;5026670;28;20136;-69
2022/07/15 08:44:35;;;;;;;10.48;2.72;;;;;;;18.76;48.34;100311.06;5025783;28;20124;-67
2022/07/15 08:47:04;;;;;;;8.23;2.20;;;;;;;19.12;47.36;100309.22;5025946;28;20046;-69
2022/07/15 08:49:34;;;;;;;6.22;2.88;;;;;;;19.49;47.17;100312.56;5025774;28;20417;-67
2022/07/15 08:52:02;;;;;;;9.13;3.13;;;;;;;19.75;44.91;100304.38;5025731;28;20133;-67
2022/07/15 08:54:30;;;;;;;3.83;1.63;;;;;;;20.21;45.39;100306.03;5026197;28;20103;-67
2022/07/15 08:56:57;;;;;;;7.82;2.75;;;;;;;20.72;44.17;100298.25;5020143;28;20050;-67
2022/07/15 08:59:24;;;;;;;8.27;2.20;;;;;;;21.08;43.91;100296.09;5006824;28;20136;-67
2022/07/15 09:01:51;;;;;;;8.88;2.08;;;;;;;20.82;44.38;100302.81;5006764;28;20080;-65
2022/07/15 09:04:18;;;;;;;4.38;1.95;;;;;;;20.46;45.26;100295.00;5025168;28;20148;-66
2022/07/15 09:06:48;;;;;;;5.97;2.13;;;;;;;20.14;46.03;100300.31;5024637;28;20052;-66
2022/07/15 09:09:32;;;;;;;2.22;1.75;;;;;;;19.93;46.52;100303.75;5026165;28;20053;-66
2022/07/15 09:12:03;;;;;;;6.90;1.92;;;;;;;19.76;47.21;100298.88;5025790;28;20045;-67
2022/07/15 09:14:32;;;;;;;8.25;2.28;;;;;;;19.69;47.24;100298.53;5024943;28;20053;-68
2022/07/15 09:17:22;;;;;;;10.48;2.55;;;;;;;20.50;46.53;100284.88;5024868;28;20045;-68
2022/07/15 09:20:08;;;;;;;7.13;2.10;;;;;;;21.40;42.21;100288.00;5025861;28;20049;-68
2022/07/15 09:22:50;;;;;;;6.72;2.05;;;;;;;22.23;38.88;100288.78;5024899;28;20134;-67
2022/07/15 09:25:17;;;;;;;4.45;2.10;;;;;;;22.91;36.23;100286.16;5018537;28;20088;-66
2022/07/15 09:27:45;;;;;;;7.60;2.55;;;;;;;23.42;35.44;100294.00;5025005;28;20045;-66
2022/07/15 09:36:05;;;;;;;3.83;2.00;;;;;;;25.46;32.45;100282.69;5024188;28;20148;-66
2022/07/15 09:38:43;;;;;;;4.03;1.90;;;;;;;25.92;30.31;100279.75;5022326;28;20471;-67
2022/07/15 09:41:12;;;;;;;3.40;1.63;;;;;;;25.57;31.36;100280.72;5024905;28;20052;-66
2022/07/15 09:43:47;;;;;;;9.52;3.20;;;;;;;26.73;31.25;100284.53;5024561;28;20137;-68
2022/07/15 09:46:14;;;;;;;14.05;3.40;;;;;;;27.09;28.93;100281.47;5021945;28;20497;-66
2022/07/15 09:48:43;;;;;;;4.40;2.67;;;;;;;27.10;28.98;100276.91;5025155;28;20119;-67
2022/07/15 09:51:10;;;;;;;3.58;2.40;;;;;;;26.70;28.22;100276.72;5024471;28;20049;-67
2022/07/15 09:53:40;;;;;;;5.72;1.98;;;;;;;27.18;27.37;100274.19;5024621;28;20086;-67
2022/07/15 09:56:08;;;;;;;3.55;1.48;;;;;;;27.36;27.85;100274.84;5024071;28;20413;-68
2022/07/15 09:58:39;;;;;;;4.03;2.22;;;;;;;27.46;27.29;100271.97;5024697;28;20049;-67
2022/07/15 10:01:07;;;;;;;8.35;2.10;;;;;;;27.52;27.28;100271.28;5024048;28;20471;-67
2022/07/15 10:03:34;;;;;;;5.70;1.60;;;;;;;26.39;29.12;100265.69;5024011;28;20057;-68
2022/07/15 10:06:02;;;;;;;4.18;2.00;;;;;;;25.74;30.38;100274.41;5023703;28;20049;-67
2022/07/15 10:08:29;;;;;;;4.25;2.05;;;;;;;24.63;32.36;100271.41;5024572;28;20049;-67
2022/07/15 10:10:58;;;;;;;5.78;1.70;;;;;;;24.00;33.93;100273.09;5024013;28;20057;-67
2022/07/15 10:13:50;;;;;;;5.53;1.95;;;;;;;23.46;34.27;100271.19;5024284;28;20056;-61
2022/07/15 10:16:47;;;;;;;4.22;1.63;;;;;;;22.85;35.77;100267.88;5023678;28;20050;-61
2022/07/15 10:19:20;;;;;;;4.78;1.80;;;;;;;22.48;35.43;100270.44;5024010;28;20059;-62
2022/07/15 10:21:57;;;;;;;6.68;2.17;;;;;;;22.91;34.65;100264.63;5024052;28;20144;-62
2022/07/15 10:24:40;;;;;;;4.50;1.63;;;;;;;23.53;32.86;100266.94;5023621;28;20061;-63
2022/07/15 10:27:25;;;;;;;3.40;1.63;;;;;;;23.18;33.10;100265.72;5024190;28;20059;-61
2022/07/15 10:29:52;;;;;;;4.10;1.95;;;;;;;24.50;31.54;100266.41;5021641;28;20446;-62
2022/07/15 10:32:18;;;;;;;6.82;2.47;;;;;;;25.35;29.96;100261.41;5023629;28;20053;-66
2022/07/15 10:34:45;;;;;;;4.97;2.22;;;;;;;26.16;28.85;100256.50;5021413;28;20049;-66
2022/07/15 10:37:13;;;;;;;5.93;2.47;;;;;;;26.40;28.44;100259.28;5025204;28;20505;-66
2022/07/15 10:40:05;;;;;;;6.18;2.45;;;;;;;25.79;29.59;100258.53;5017742;28;20120;-65
2022/07/15 10:42:58;;;;;;;4.13;1.67;;;;;;;24.78;30.56;100256.38;5012040;28;20823;-66
2022/07/15 10:45:25;;;;;;;3.30;1.73;;;;;;;23.70;32.96;100258.06;5016449;28;20857;-66
2022/07/15 10:48:30;;;;;;;7.55;2.50;;;;;;;23.19;34.28;100261.22;5020642;28;20041;-67
2022/07/15 10:50:57;;;;;;;4.07;2.13;;;;;;;23.54;33.03;100257.84;5023269;28;20159;-67
2022/07/15 10:53:27;;;;;;;6.70;1.95;;;;;;;24.63;31.97;100247.16;5024285;28;20045;-65
2022/07/15 10:55:54;;;;;;;5.82;2.20;;;;;;;25.38;29.82;100241.31;5009611;28;20064;-66
2022/07/15 10:58:22;;;;;;;3.50;2.03;;;;;;;24.61;31.21;100251.84;5008286;28;20168;-65
2022/07/15 11:00:49;;;;;;;8.88;1.98;;;;;;;24.74;31.16;100246.09;5023392;28;20051;-65
2022/07/15 11:03:17;;;;;;;7.85;2.50;;;;;;;25.58;29.70;100242.78;5023673;28;20054;-66
2022/07/15 11:06:04;;;;;;;11.77;3.05;;;;;;;25.41;30.35;100244.53;5023261;28;20060;-64
2022/07/15 11:08:50;;;;;;;6.40;1.85;;;;;;;24.85;30.17;100237.72;5023683;28;20052;-66
2022/07/15 11:11:49;;;;;;;5.55;2.20;;;;;;;24.49;30.59;100239.59;5024428;28;20053;-64
2022/07/15 11:14:46;;;;;;;4.70;1.70;;;;;;;24.13;31.80;100237.72;5023797;28;20049;-63
2022/07/15 11:17:16;;;;;;;5.97;2.00;;;;;;;23.81;32.52;100234.66;5018513;28;20095;-63
2022/07/15 11:19:46;;;;;;;8.77;3.28;;;;;;;23.42;32.58;100224.88;5024877;28;20051;-64
2022/07/15 11:22:13;;;;;;;4.03;2.42;;;;;;;22.56;34.22;100226.72;5024461;28;20053;-64
2022/07/15 11:24:39;;;;;;;4.30;1.98;;;;;;;22.15;33.92;100234.88;5023923;28;20069;-64
2022/07/15 11:27:06;;;;;;;5.88;2.22;;;;;;;22.05;34.13;100234.00;5023756;28;20504;-66
2022/07/15 11:29:44;;;;;;;6.75;2.38;;;;;;;21.73;35.19;100237.72;5027225;28;20416;-65
2022/07/15 11:32:13;;;;;;;4.70;1.60;;;;;;;21.59;35.52;100232.75;5028181;28;20054;-65
2022/07/15 11:34:42;;;;;;;2.83;1.40;;;;;;;21.82;34.93;100228.88;5027072;28;20049;-64
2022/07/15 11:37:11;;;;;;;6.18;2.17;;;;;;;21.67;35.49;100224.88;5028736;28;20057;-64